sensor_id;sensor_type;location;lat;lon;timestamp;pressure;altitude;pressure_sealevel;temperature;humidity
70458;BME280;57919;56.194;95.716;2023-01-28T00:07:42;99477.97;;;-6.38;67.64
70458;BME280;57919;56.194;95.716;2023-01-28T00:17:44;99437.25;;;-6.70;68.07
70458;BME280;57919;56.194;95.716;2023-01-28T00:27:46;99459.94;;;-6.61;67.42
70458;BME280;57919;56.194;95.716;2023-01-28T00:37:51;99496.53;;;-6.46;67.26
70458;BME280;57919;56.194;95.716;2023-01-28T00:47:53;99531.53;;;-6.41;67.27
70458;BME280;57919;56.194;95.716;2023-01-28T00:57:55;99543.78;;;-6.38;67.34
70458;BME280;57919;56.194;95.716;2023-01-28T01:07:56;99553.34;;;-6.34;67.35
70458;BME280;57919;56.194;95.716;2023-01-28T01:17:58;99555.97;;;-6.33;67.08
70458;BME280;57919;56.194;95.716;2023-01-28T01:28:01;99558.69;;;-6.39;67.39
70458;BME280;57919;56.194;95.716;2023-01-28T01:38:02;99556.06;;;-6.39;67.75
70458;BME280;57919;56.194;95.716;2023-01-28T01:48:12;99568.84;;;-6.14;68.58
70458;BME280;57919;56.194;95.716;2023-01-28T01:58:19;99567.16;;;-6.18;66.82
70458;BME280;57919;56.194;95.716;2023-01-28T02:08:23;99564.66;;;-4.41;63.57
70458;BME280;57919;56.194;95.716;2023-01-28T02:18:26;99544.72;;;-5.41;64.12
70458;BME280;57919;56.194;95.716;2023-01-28T02:28:54;99527.53;;;-5.62;66.55
70458;BME280;57919;56.194;95.716;2023-01-28T02:38:55;99545.41;;;-5.79;64.79
70458;BME280;57919;56.194;95.716;2023-01-28T02:49:05;99543.28;;;-5.59;65.31
70458;BME280;57919;56.194;95.716;2023-01-28T03:09:38;99520.44;;;-5.12;64.91
70458;BME280;57919;56.194;95.716;2023-01-28T03:19:41;99525.69;;;-5.12;63.80
70458;BME280;57919;56.194;95.716;2023-01-28T03:30:14;99550.13;;;-5.02;65.03
70458;BME280;57919;56.194;95.716;2023-01-28T03:40:55;99535.75;;;-4.88;63.51
70458;BME280;57919;56.194;95.716;2023-01-28T03:50:58;99548.41;;;-4.63;63.40
70458;BME280;57919;56.194;95.716;2023-01-28T04:01:03;99543.56;;;-4.43;63.79
70458;BME280;57919;56.194;95.716;2023-01-28T04:11:05;99541.34;;;-4.22;63.09
70458;BME280;57919;56.194;95.716;2023-01-28T04:21:17;99532.56;;;-3.87;63.35
70458;BME280;57919;56.194;95.716;2023-01-28T04:31:19;99500.28;;;-4.00;63.44
70458;BME280;57919;56.194;95.716;2023-01-28T04:41:39;99522.34;;;-3.67;62.25
70458;BME280;57919;56.194;95.716;2023-01-28T04:51:54;99518.22;;;-3.45;62.11
70458;BME280;57919;56.194;95.716;2023-01-28T05:02:26;99498.41;;;-3.61;60.90
70458;BME280;57919;56.194;95.716;2023-01-28T05:12:28;99505.94;;;-3.47;60.34
70458;BME280;57919;56.194;95.716;2023-01-28T05:22:31;99504.91;;;-3.42;61.08
70458;BME280;57919;56.194;95.716;2023-01-28T05:32:54;99493.84;;;-3.23;60.74
70458;BME280;57919;56.194;95.716;2023-01-28T05:42:57;99487.16;;;-3.37;61.41
70458;BME280;57919;56.194;95.716;2023-01-28T05:53:21;99485.25;;;-3.32;60.68
70458;BME280;57919;56.194;95.716;2023-01-28T06:03:25;99456.16;;;-3.32;60.37
70458;BME280;57919;56.194;95.716;2023-01-28T06:13:27;99470.50;;;-3.40;60.62
70458;BME280;57919;56.194;95.716;2023-01-28T06:23:57;99468.94;;;-3.47;60.17
70458;BME280;57919;56.194;95.716;2023-01-28T06:33:59;99457.75;;;-3.26;59.94
70458;BME280;57919;56.194;95.716;2023-01-28T06:44:01;99461.78;;;-3.13;60.22
70458;BME280;57919;56.194;95.716;2023-01-28T06:54:03;99433.47;;;-3.09;58.72
70458;BME280;57919;56.194;95.716;2023-01-28T07:04:05;99404.31;;;-3.37;58.70
70458;BME280;57919;56.194;95.716;2023-01-28T07:14:07;99391.59;;;-3.24;57.60
70458;BME280;57919;56.194;95.716;2023-01-28T07:24:09;99419.63;;;-3.19;57.67
70458;BME280;57919;56.194;95.716;2023-01-28T07:34:12;99401.56;;;-3.34;58.93
70458;BME280;57919;56.194;95.716;2023-01-28T07:44:14;99375.56;;;-3.49;58.59
70458;BME280;57919;56.194;95.716;2023-01-28T07:54:16;99396.22;;;-3.03;59.70
70458;BME280;57919;56.194;95.716;2023-01-28T08:04:19;99397.72;;;-2.95;59.43
70458;BME280;57919;56.194;95.716;2023-01-28T08:14:21;99404.75;;;-2.66;59.56
70458;BME280;57919;56.194;95.716;2023-01-28T08:24:23;99376.59;;;-2.68;58.61
70458;BME280;57919;56.194;95.716;2023-01-28T08:34:25;99367.13;;;-2.75;59.36
70458;BME280;57919;56.194;95.716;2023-01-28T08:44:27;99381.38;;;-2.79;58.47
70458;BME280;57919;56.194;95.716;2023-01-28T08:54:29;99325.13;;;-3.14;59.02
70458;BME280;57919;56.194;95.716;2023-01-28T09:04:31;99372.88;;;-3.18;59.73
70458;BME280;57919;56.194;95.716;2023-01-28T09:14:33;99350.50;;;-3.66;61.09
70458;BME280;57919;56.194;95.716;2023-01-28T09:24:37;99385.81;;;-3.68;61.86
70458;BME280;57919;56.194;95.716;2023-01-28T09:34:39;99349.13;;;-4.11;62.25
70458;BME280;57919;56.194;95.716;2023-01-28T10:05:22;99350.06;;;-4.14;65.08
70458;BME280;57919;56.194;95.716;2023-01-28T10:25:45;99363.78;;;-4.32;66.81
70458;BME280;57919;56.194;95.716;2023-01-28T10:35:49;99346.97;;;-4.30;67.06
70458;BME280;57919;56.194;95.716;2023-01-28T10:46:02;99346.81;;;-4.24;65.71
70458;BME280;57919;56.194;95.716;2023-01-28T10:56:30;99326.72;;;-4.29;65.08
70458;BME280;57919;56.194;95.716;2023-01-28T11:06:32;99319.66;;;-4.29;65.23
70458;BME280;57919;56.194;95.716;2023-01-28T11:16:34;99284.97;;;-4.47;66.19
70458;BME280;57919;56.194;95.716;2023-01-28T11:26:43;99274.16;;;-4.38;65.89
70458;BME280;57919;56.194;95.716;2023-01-28T11:37:00;99281.13;;;-4.36;66.93
70458;BME280;57919;56.194;95.716;2023-01-28T12:08:35;99256.06;;;-4.52;68.20
70458;BME280;57919;56.194;95.716;2023-01-28T12:49:48;99247.91;;;-4.12;67.28
70458;BME280;57919;56.194;95.716;2023-01-28T13:10:46;99233.78;;;-4.11;68.01
70458;BME280;57919;56.194;95.716;2023-01-28T13:20:50;99212.16;;;-4.24;68.05
70458;BME280;57919;56.194;95.716;2023-01-28T13:31:00;99220.53;;;-4.09;68.24
70458;BME280;57919;56.194;95.716;2023-01-28T13:41:04;99202.31;;;-4.18;68.04
70458;BME280;57919;56.194;95.716;2023-01-28T14:12:26;99192.06;;;-4.29;69.91
70458;BME280;57919;56.194;95.716;2023-01-28T14:22:33;99150.75;;;-4.61;70.24
70458;BME280;57919;56.194;95.716;2023-01-28T14:32:51;99173.13;;;-4.43;70.39
70458;BME280;57919;56.194;95.716;2023-01-28T14:42:57;99168.59;;;-4.40;70.77
70458;BME280;57919;56.194;95.716;2023-01-28T15:03:17;99145.94;;;-4.47;70.51
70458;BME280;57919;56.194;95.716;2023-01-28T15:13:32;99159.03;;;-4.44;70.83
70458;BME280;57919;56.194;95.716;2023-01-28T15:23:40;99156.97;;;-4.33;70.50
70458;BME280;57919;56.194;95.716;2023-01-28T15:33:44;99132.00;;;-4.52;71.14
70458;BME280;57919;56.194;95.716;2023-01-28T15:43:48;99147.22;;;-4.31;71.02
70458;BME280;57919;56.194;95.716;2023-01-28T15:53:55;99136.38;;;-4.51;71.78
70458;BME280;57919;56.194;95.716;2023-01-28T16:04:04;99127.47;;;-4.47;71.42
70458;BME280;57919;56.194;95.716;2023-01-28T16:14:54;99118.50;;;-4.41;70.35
70458;BME280;57919;56.194;95.716;2023-01-28T16:24:54;99122.72;;;-4.36;70.92
70458;BME280;57919;56.194;95.716;2023-01-28T16:34:56;99119.19;;;-4.35;69.62
70458;BME280;57919;56.194;95.716;2023-01-28T16:44:58;99113.22;;;-4.41;70.75
70458;BME280;57919;56.194;95.716;2023-01-28T16:55:00;99113.13;;;-4.38;70.04
70458;BME280;57919;56.194;95.716;2023-01-28T17:05:04;99107.75;;;-4.35;70.36
70458;BME280;57919;56.194;95.716;2023-01-28T17:15:07;99105.94;;;-4.33;70.30
70458;BME280;57919;56.194;95.716;2023-01-28T17:25:09;99099.88;;;-4.37;70.21
70458;BME280;57919;56.194;95.716;2023-01-28T17:35:11;99093.78;;;-4.39;71.03
70458;BME280;57919;56.194;95.716;2023-01-28T17:45:14;99097.34;;;-4.40;70.25
70458;BME280;57919;56.194;95.716;2023-01-28T17:55:15;99056.69;;;-4.64;71.07
70458;BME280;57919;56.194;95.716;2023-01-28T18:05:18;99068.63;;;-4.50;71.09
70458;BME280;57919;56.194;95.716;2023-01-28T18:15:20;99055.41;;;-4.50;71.12
70458;BME280;57919;56.194;95.716;2023-01-28T18:25:24;99032.53;;;-4.50;70.77
70458;BME280;57919;56.194;95.716;2023-01-28T18:35:26;98987.22;;;-4.64;70.42
70458;BME280;57919;56.194;95.716;2023-01-28T18:45:28;99017.28;;;-3.86;71.39
70458;BME280;57919;56.194;95.716;2023-01-28T18:55:31;99030.25;;;-4.06;70.38
70458;BME280;57919;56.194;95.716;2023-01-28T19:05:37;99019.34;;;-4.22;70.05
70458;BME280;57919;56.194;95.716;2023-01-28T19:15:39;98995.28;;;-4.41;70.34
70458;BME280;57919;56.194;95.716;2023-01-28T19:25:41;98976.19;;;-4.49;70.29
70458;BME280;57919;56.194;95.716;2023-01-28T19:35:43;99020.28;;;-4.25;70.15
70458;BME280;57919;56.194;95.716;2023-01-28T19:46:01;98971.09;;;-4.55;70.02
70458;BME280;57919;56.194;95.716;2023-01-28T19:56:06;98996.53;;;-4.52;70.64
70458;BME280;57919;56.194;95.716;2023-01-28T20:06:14;98971.97;;;-4.82;71.46
70458;BME280;57919;56.194;95.716;2023-01-28T20:16:21;98970.50;;;-4.93;72.37
70458;BME280;57919;56.194;95.716;2023-01-28T20:26:26;98970.50;;;-5.22;74.40
70458;BME280;57919;56.194;95.716;2023-01-28T20:36:30;98966.09;;;-5.22;75.67
70458;BME280;57919;56.194;95.716;2023-01-28T20:46:33;98953.25;;;-5.34;76.84
70458;BME280;57919;56.194;95.716;2023-01-28T20:56:36;98958.50;;;-5.32;76.70
70458;BME280;57919;56.194;95.716;2023-01-28T21:06:38;98953.22;;;-5.32;77.34
70458;BME280;57919;56.194;95.716;2023-01-28T21:16:40;98923.22;;;-5.28;77.53
70458;BME280;57919;56.194;95.716;2023-01-28T21:26:43;98893.59;;;-5.36;76.97
70458;BME280;57919;56.194;95.716;2023-01-28T21:36:45;98917.09;;;-4.99;77.10
70458;BME280;57919;56.194;95.716;2023-01-28T21:46:47;98906.78;;;-4.79;75.60
70458;BME280;57919;56.194;95.716;2023-01-28T21:56:50;98890.91;;;-4.77;76.51
70458;BME280;57919;56.194;95.716;2023-01-28T22:06:53;98894.78;;;-4.61;75.70
70458;BME280;57919;56.194;95.716;2023-01-28T22:16:55;98879.66;;;-4.56;75.77
70458;BME280;57919;56.194;95.716;2023-01-28T22:26:57;98865.03;;;-4.40;75.62
70458;BME280;57919;56.194;95.716;2023-01-28T22:36:59;98853.09;;;-4.25;75.13
70458;BME280;57919;56.194;95.716;2023-01-28T22:47:01;98862.47;;;-4.16;74.41
70458;BME280;57919;56.194;95.716;2023-01-28T22:57:03;98845.22;;;-4.27;74.21
70458;BME280;57919;56.194;95.716;2023-01-28T23:07:05;98822.75;;;-4.38;74.69
70458;BME280;57919;56.194;95.716;2023-01-28T23:17:08;98834.34;;;-4.17;74.67
70458;BME280;57919;56.194;95.716;2023-01-28T23:27:28;98822.75;;;-4.13;74.41
70458;BME280;57919;56.194;95.716;2023-01-28T23:37:30;98800.81;;;-4.15;74.56
70458;BME280;57919;56.194;95.716;2023-01-28T23:47:32;98809.16;;;-4.03;74.63
70458;BME280;57919;56.194;95.716;2023-01-28T23:57:35;98779.06;;;-3.99;73.97
